Huntsville Municipal Airport
KUTS : now visible

Airfield :











YOU CAN JOIN US ON...

 
LOGIN :

Register | Disclaimer

   EN    FR    IT 

 









Legend :    VFR   Marginal VFR   IFR   Intensive IFR   Very Intensive IFR
Visi :
Ceiling :
>= 8 km
>= 3000ft
5 to 8 km
1000 to 3000 ft
1500m to 5 km
500 to 1000 ft
800 to 1500m
200 to 500 ft
< 800m
< 200 ft
Symbols :   Thunderstorms  Fog  Heavy snow  Heavy precipitations  Wind > 20 kt






- Airport Elevation : 363 ft


KUTS - Huntsville Municipal

CURRENT METAR :
  • 090153Z AUTO 18005KT 10SM 18/14 A2991 RMK AO2 SLP125 T01780144 $

EXPIRED METARs :
  • 090053Z AUTO 17005KT 10SM 19/14 A2990 RMK AO2 SLP121 T01890144 $
  • 082353Z AUTO 15004KT 10SM 19/14 A2989 RMK AO2 SLP119 T01940144 10222 20183 58016 $

TAF KUTS
Valid from the 09 at 00:00 until the 10 at 00:00 UTC


082337Z 0900/0924 17006KT P6SM FEW035 OVC250
FM090700 18007KT P6SM BKN025
FM091100 20005KT P6SM OVC012
FM091600 22011KT P6SM OVC015
FM091800 22011KT P6SM BKN025 BKN040
FM092200 18007KT P6SM SCT030 BKN110



MET'MAP, your aeronautical weather chart ! - Copyright ORBIFLY December 2007 - Disclaimer

ORBIFLY MET'MAP TEAM :

Programming & Development : Alexandra Zaïnal
Concept & original design : Baudouin d'Aumeries
Assistance for programming : Marc-Olivier Méhu
Technical & hardware support : Manuel Goepfert

Contact : metmap@orbifly.com




SOURCES & CREDITS :

   NOAA       Earth
Advisory